createdAt,value
2022-08-19T00:01:53.139Z,4.27
2022-08-19T00:04:24.274Z,5.37
2022-08-19T00:06:54.526Z,3.80
2022-08-19T00:09:24.597Z,4.47
2022-08-19T00:11:53.621Z,5.30
2022-08-19T00:14:22.938Z,6.07
2022-08-19T00:16:52.536Z,4.50
2022-08-19T00:19:20.863Z,3.47
2022-08-19T00:21:49.329Z,3.47
2022-08-19T00:24:19.462Z,3.60
2022-08-19T00:26:47.925Z,4.60
2022-08-19T00:29:18.976Z,5.70
2022-08-19T00:31:48.154Z,3.40
2022-08-19T00:34:19.566Z,4.27
2022-08-19T00:36:49.125Z,4.77
2022-08-19T00:39:19.862Z,4.10
2022-08-19T00:41:49.805Z,6.57
2022-08-19T00:44:21.054Z,6.53
2022-08-19T00:46:57.779Z,5.83
2022-08-19T00:49:31.666Z,5.17
2022-08-19T00:52:03.886Z,4.23
2022-08-19T00:54:34.180Z,6.97
2022-08-19T00:57:07.170Z,5.40
2022-08-19T01:00:00.517Z,4.30
2022-08-19T01:02:27.141Z,4.73
2022-08-19T01:04:55.998Z,5.57
2022-08-19T01:07:24.685Z,4.20
2022-08-19T01:09:54.640Z,5.03
2022-08-19T01:12:23.285Z,4.53
2022-08-19T01:14:52.276Z,5.17
2022-08-19T01:17:21.409Z,4.27
2022-08-19T01:19:51.764Z,4.80
2022-08-19T01:22:33.439Z,4.67
2022-08-19T01:25:03.633Z,5.37
2022-08-19T01:27:43.866Z,6.07
2022-08-19T01:30:15.185Z,4.57
2022-08-19T01:32:44.340Z,4.50
2022-08-19T01:35:18.853Z,6.30
2022-08-19T01:37:52.917Z,4.73
2022-08-19T01:40:52.994Z,5.83
2022-08-19T01:43:21.801Z,5.37
2022-08-19T01:45:50.059Z,6.40
2022-08-19T01:48:18.670Z,5.03
2022-08-19T01:53:49.619Z,5.83
2022-08-19T01:56:19.057Z,4.57
2022-08-19T01:58:53.756Z,5.20
2022-08-19T02:01:22.591Z,4.70
2022-08-19T02:03:51.166Z,4.70
2022-08-19T02:06:19.479Z,5.83
2022-08-19T02:08:57.347Z,5.37
2022-08-19T02:11:31.188Z,4.40
2022-08-19T02:14:00.364Z,5.00
2022-08-19T02:16:28.697Z,3.87
2022-08-19T02:18:57.037Z,3.37
2022-08-19T02:21:26.563Z,5.00
2022-08-19T02:23:56.375Z,4.13
2022-08-19T02:26:24.878Z,5.97
2022-08-19T02:28:53.193Z,4.03
2022-08-19T02:31:23.500Z,4.40
2022-08-19T02:33:56.602Z,4.77
2022-08-19T02:36:27.131Z,4.87
2022-08-19T02:38:56.511Z,4.50
2022-08-19T02:41:28.298Z,4.20
2022-08-19T02:44:26.524Z,5.97
2022-08-19T02:46:48.984Z,4.33
2022-08-19T02:49:19.967Z,3.57
2022-08-19T02:51:48.971Z,5.20
2022-08-19T02:54:18.754Z,6.03
2022-08-19T02:56:47.523Z,4.60
2022-08-19T02:59:15.945Z,3.63
2022-08-19T03:01:44.618Z,4.13
2022-08-19T03:04:16.558Z,7.20
2022-08-19T03:06:47.290Z,3.77
2022-08-19T03:09:16.246Z,6.03
2022-08-19T03:11:46.452Z,5.40
2022-08-19T03:14:16.997Z,5.37
2022-08-19T03:16:48.628Z,4.33
2022-08-19T03:19:19.854Z,4.40
2022-08-19T03:21:48.330Z,4.33
2022-08-19T03:24:18.322Z,5.00
2022-08-19T03:26:53.048Z,4.10
2022-08-19T03:29:30.858Z,5.33
2022-08-19T03:32:01.668Z,4.20
2022-08-19T03:34:32.894Z,6.33
2022-08-19T03:37:07.771Z,5.43
2022-08-19T03:39:37.757Z,4.53
2022-08-19T03:42:38.735Z,4.77
2022-08-19T03:44:55.996Z,4.50
2022-08-19T03:47:24.236Z,5.60
2022-08-19T03:49:52.557Z,4.87
2022-08-19T03:52:20.846Z,4.90
2022-08-19T03:54:49.274Z,5.83
2022-08-19T03:57:18.891Z,7.73
2022-08-19T03:59:47.051Z,5.33
2022-08-19T04:02:15.715Z,4.10
2022-08-19T04:04:45.533Z,5.50
2022-08-19T04:07:17.281Z,5.87
2022-08-19T04:09:46.206Z,6.33
2022-08-19T04:12:14.573Z,5.77
2022-08-19T04:14:44.334Z,6.13
2022-08-19T04:17:13.965Z,4.60
2022-08-19T04:19:43.977Z,5.87
2022-08-19T04:22:13.061Z,6.87
2022-08-19T04:24:41.390Z,5.37
2022-08-19T04:27:09.615Z,5.20
2022-08-19T04:29:40.576Z,6.87
2022-08-19T04:32:10.557Z,6.90
2022-08-19T04:35:01.407Z,4.70
2022-08-19T04:37:35.513Z,5.87
2022-08-19T04:40:24.530Z,6.77
2022-08-19T04:42:54.670Z,5.30
2022-08-19T04:45:23.573Z,5.77
2022-08-19T04:48:27.163Z,7.47
2022-08-19T04:50:46.461Z,6.60
2022-08-19T04:53:14.528Z,5.93
2022-08-19T04:55:43.617Z,5.70
2022-08-19T04:58:11.744Z,6.27
2022-08-19T05:00:40.912Z,6.27
2022-08-19T05:03:10.565Z,6.43
2022-08-19T05:05:45.008Z,7.07
2022-08-19T05:08:15.258Z,7.17
2022-08-19T05:10:43.695Z,5.93
2022-08-19T05:13:11.878Z,6.13
2022-08-19T05:15:39.946Z,6.67
2022-08-19T05:18:25.642Z,7.23
2022-08-19T05:21:12.546Z,7.90
2022-08-19T05:23:42.055Z,6.53
2022-08-19T05:26:11.942Z,5.23
2022-08-19T05:28:39.998Z,6.37
2022-08-19T05:31:08.165Z,5.47
2022-08-19T05:33:36.301Z,5.27
2022-08-19T05:36:06.802Z,6.10
2022-08-19T05:38:34.938Z,7.03
2022-08-19T05:41:03.637Z,6.40
2022-08-19T05:43:32.222Z,6.47
2022-08-19T05:46:00.293Z,6.63
2022-08-19T05:48:29.210Z,7.73
2022-08-19T05:50:57.917Z,7.07
2022-08-19T05:53:27.390Z,5.77
2022-08-19T05:55:55.465Z,7.80
2022-08-19T05:58:26.896Z,7.37
2022-08-19T06:00:56.293Z,12.33
2022-08-19T06:03:24.859Z,7.83
2022-08-19T06:05:55.977Z,6.90
2022-08-19T06:08:34.321Z,7.70
2022-08-19T06:11:20.289Z,8.87
2022-08-19T06:13:51.512Z,7.63
2022-08-19T06:16:23.110Z,6.73
2022-08-19T06:18:53.465Z,6.73
2022-08-19T06:21:21.989Z,7.33
2022-08-19T06:23:51.318Z,7.17
2022-08-19T06:26:21.916Z,8.70
2022-08-19T06:28:50.267Z,11.27
2022-08-19T06:31:21.231Z,9.43
2022-08-19T06:33:50.731Z,9.27
2022-08-19T06:36:22.038Z,10.57
2022-08-19T06:38:54.039Z,7.17
2022-08-19T06:41:23.544Z,9.73
2022-08-19T06:43:53.983Z,9.33
2022-08-19T06:46:25.070Z,8.57
2022-08-19T06:48:54.418Z,7.60
2022-08-19T06:51:24.896Z,10.00
2022-08-19T06:53:55.850Z,8.07
2022-08-19T06:56:31.905Z,8.40
2022-08-19T06:59:00.145Z,10.03
2022-08-19T07:01:28.765Z,7.97
2022-08-19T07:03:57.494Z,8.00
2022-08-19T07:06:43.609Z,7.20
2022-08-19T07:09:18.568Z,7.70
2022-08-19T07:11:50.158Z,8.57
2022-08-19T07:14:20.392Z,7.37
2022-08-19T07:16:49.969Z,8.87
2022-08-19T07:19:18.841Z,8.00
2022-08-19T07:21:47.906Z,8.73
2022-08-19T07:24:16.783Z,7.60
2022-08-19T07:26:46.050Z,6.57
2022-08-19T07:29:17.490Z,6.20
2022-08-19T07:31:46.470Z,8.33
2022-08-19T07:34:15.607Z,7.67
2022-08-19T07:36:46.741Z,7.10
2022-08-19T07:39:18.490Z,6.23
2022-08-19T07:41:47.621Z,6.23
2022-08-19T07:44:17.426Z,9.03
2022-08-19T07:46:49.270Z,5.83
2022-08-19T07:49:20.049Z,6.30
2022-08-19T07:51:49.685Z,6.13
2022-08-19T07:54:18.990Z,6.57
2022-08-19T07:56:47.241Z,7.37
2022-08-19T07:59:18.358Z,8.43
2022-08-19T08:01:46.984Z,8.07
2022-08-19T08:04:33.347Z,7.57
2022-08-19T08:07:19.045Z,8.43
2022-08-19T08:09:49.651Z,7.27
2022-08-19T08:12:36.428Z,6.77
2022-08-19T08:15:12.432Z,6.50
2022-08-19T08:17:49.678Z,7.10
2022-08-19T08:20:20.399Z,8.20
2022-08-19T08:23:07.151Z,7.07
2022-08-19T08:25:36.229Z,10.63
2022-08-19T08:28:05.696Z,6.80
2022-08-19T08:30:36.851Z,9.43
2022-08-19T08:33:06.521Z,6.00
2022-08-19T08:35:35.425Z,6.37
2022-08-19T08:38:05.858Z,5.40
2022-08-19T08:40:40.922Z,6.00
2022-08-19T08:43:13.671Z,6.93
2022-08-19T08:45:53.343Z,6.17
2022-08-19T08:48:26.569Z,8.93
2022-08-19T08:50:57.374Z,7.33
2022-08-19T08:53:29.199Z,7.47
2022-08-19T08:55:57.978Z,6.83
2022-08-19T08:58:33.178Z,7.93
2022-08-19T09:01:02.596Z,6.47
2022-08-19T09:03:31.411Z,7.20
2022-08-19T09:06:04.393Z,8.37
2022-08-19T09:08:44.974Z,7.33
2022-08-19T09:11:42.676Z,9.67
2022-08-19T09:14:49.423Z,7.73
2022-08-19T09:17:16.586Z,8.97
2022-08-19T09:19:56.110Z,6.77
2022-08-19T09:22:27.423Z,6.63
2022-08-19T09:24:56.208Z,10.23
2022-08-19T09:27:42.105Z,7.27
2022-08-19T09:30:15.990Z,7.83
2022-08-19T09:32:46.509Z,8.57
2022-08-19T09:35:16.421Z,7.00
2022-08-19T09:37:45.336Z,6.37
2022-08-19T09:40:15.622Z,6.73
2022-08-19T09:42:49.995Z,6.40
2022-08-19T09:45:22.294Z,7.07
2022-08-19T09:47:54.122Z,6.37
2022-08-19T09:50:24.304Z,6.97
2022-08-19T09:52:57.352Z,6.73
2022-08-19T09:55:31.935Z,7.10
2022-08-19T09:58:04.430Z,6.53
2022-08-19T10:00:32.951Z,6.40
2022-08-19T10:03:02.350Z,7.07
2022-08-19T10:05:50.173Z,6.07
2022-08-19T10:08:20.694Z,6.90
2022-08-19T10:10:49.126Z,8.60
2022-08-19T10:13:22.870Z,7.67
2022-08-19T10:15:52.038Z,7.33
2022-08-19T10:18:23.029Z,5.80
2022-08-19T10:20:53.452Z,5.73
2022-08-19T10:23:22.912Z,8.10
2022-08-19T10:25:54.471Z,8.70
2022-08-19T10:28:23.953Z,7.40
2022-08-19T10:30:52.026Z,7.33
2022-08-19T10:33:40.908Z,8.77
2022-08-19T10:36:12.698Z,8.57
2022-08-19T10:38:47.528Z,7.10
2022-08-19T10:41:23.312Z,7.27
2022-08-19T10:43:55.281Z,9.50
2022-08-19T10:46:25.247Z,11.20
2022-08-19T10:48:55.909Z,8.67
2022-08-19T10:51:42.327Z,8.77
2022-08-19T10:54:16.475Z,9.87
2022-08-19T10:56:52.849Z,7.80
2022-08-19T10:59:26.888Z,10.03
2022-08-19T11:01:56.782Z,10.63
2022-08-19T11:04:29.616Z,9.27
2022-08-19T11:06:58.381Z,8.97
2022-08-19T11:09:33.666Z,9.37
2022-08-19T11:12:05.009Z,8.20
2022-08-19T11:14:34.745Z,9.40
2022-08-19T11:17:03.826Z,8.40
2022-08-19T11:19:34.085Z,7.97
2022-08-19T11:22:03.950Z,8.93
2022-08-19T11:24:33.657Z,8.13
2022-08-19T11:27:08.716Z,8.43
2022-08-19T11:29:37.483Z,8.20
2022-08-19T11:32:07.902Z,8.23
2022-08-19T11:34:38.201Z,8.87
2022-08-19T11:37:07.015Z,7.60
2022-08-19T11:39:36.328Z,8.77
2022-08-19T11:42:26.703Z,7.90
2022-08-19T11:44:54.957Z,8.67
2022-08-19T11:47:23.105Z,8.17
2022-08-19T11:49:54.354Z,6.87
2022-08-19T11:52:22.390Z,7.50
2022-08-19T11:54:50.559Z,8.77
2022-08-19T11:57:19.468Z,7.17
2022-08-19T11:59:50.910Z,6.77
2022-08-19T12:02:20.030Z,7.10
2022-08-19T12:04:48.365Z,6.67
2022-08-19T12:07:17.945Z,7.83
2022-08-19T12:09:46.032Z,8.13
2022-08-19T12:12:17.098Z,8.57
2022-08-19T12:14:45.399Z,7.83
2022-08-19T12:17:14.323Z,8.80
2022-08-19T12:19:42.357Z,6.67
2022-08-19T12:22:10.386Z,7.93
2022-08-19T12:24:39.819Z,8.30
2022-08-19T12:27:12.577Z,8.77
2022-08-19T12:29:42.512Z,10.00
2022-08-19T12:32:12.204Z,9.80
2022-08-19T12:34:41.386Z,8.83
2022-08-19T12:37:09.902Z,9.37
2022-08-19T12:39:42.744Z,9.10
2022-08-19T12:42:11.500Z,8.63
2022-08-19T12:44:41.625Z,9.07
2022-08-19T12:47:12.787Z,8.27
2022-08-19T12:49:54.413Z,8.33
2022-08-19T12:52:24.786Z,8.67
2022-08-19T12:54:55.324Z,9.10
2022-08-19T12:57:32.146Z,7.73
2022-08-19T13:00:05.079Z,8.00
2022-08-19T13:02:38.475Z,9.10
2022-08-19T13:05:10.175Z,8.17
2022-08-19T13:07:39.401Z,8.53
2022-08-19T13:10:12.056Z,8.77
2022-08-19T13:12:42.811Z,7.83
2022-08-19T13:15:12.157Z,9.37
2022-08-19T13:17:41.963Z,8.30
2022-08-19T13:20:12.218Z,8.50
2022-08-19T13:22:40.537Z,9.60
2022-08-19T13:25:11.275Z,7.43
2022-08-19T13:27:40.463Z,8.90
2022-08-19T13:30:27.970Z,6.87
2022-08-19T13:33:16.238Z,8.40
2022-08-19T13:35:48.059Z,9.80
2022-08-19T13:38:18.361Z,8.97
2022-08-19T13:40:48.347Z,7.47
2022-08-19T13:43:23.135Z,7.17
2022-08-19T13:45:57.454Z,6.80
2022-08-19T13:48:27.473Z,7.13
2022-08-19T13:50:56.152Z,10.07
2022-08-19T13:53:25.584Z,8.87
2022-08-19T13:55:55.329Z,8.70
2022-08-19T13:58:23.563Z,7.87
2022-08-19T14:00:51.735Z,7.77
2022-08-19T14:03:19.828Z,7.93
2022-08-19T14:05:48.633Z,7.60
2022-08-19T14:08:16.714Z,7.73
2022-08-19T14:10:45.666Z,7.50
2022-08-19T14:13:18.300Z,8.67
2022-08-19T14:15:48.210Z,5.90
2022-08-19T14:18:16.962Z,6.60
2022-08-19T14:20:45.884Z,5.97
2022-08-19T14:23:14.567Z,5.83
2022-08-19T14:25:42.675Z,6.10
2022-08-19T14:28:11.121Z,5.33
2022-08-19T14:30:40.553Z,5.67
2022-08-19T14:33:09.761Z,5.40
2022-08-19T14:35:38.749Z,6.60
2022-08-19T14:38:17.374Z,4.90
2022-08-19T14:40:46.685Z,5.93
2022-08-19T14:43:15.270Z,5.10
2022-08-19T14:45:47.592Z,4.80
2022-08-19T14:48:19.581Z,5.93
2022-08-19T14:50:48.687Z,5.17
2022-08-19T14:53:18.666Z,4.57
2022-08-19T14:55:48.408Z,4.60
2022-08-19T14:58:28.532Z,4.60
2022-08-19T15:01:01.057Z,4.53
2022-08-19T15:03:29.689Z,4.27
2022-08-19T15:05:58.810Z,6.53
2022-08-19T15:08:27.351Z,5.20
2022-08-19T15:10:56.150Z,4.93
2022-08-19T15:13:25.544Z,4.40
2022-08-19T15:15:53.748Z,5.20
2022-08-19T15:18:23.430Z,4.57
2022-08-19T15:20:52.109Z,4.57
2022-08-19T15:23:21.730Z,4.47
2022-08-19T15:25:52.980Z,4.33
2022-08-19T15:28:21.157Z,4.37
2022-08-19T15:30:49.294Z,4.20
2022-08-19T15:33:18.486Z,4.53
2022-08-19T15:35:50.857Z,3.53
2022-08-19T15:38:21.982Z,4.43
2022-08-19T15:40:51.250Z,3.80
2022-08-19T15:43:22.141Z,3.50
2022-08-19T15:45:50.398Z,4.33
2022-08-19T15:48:18.729Z,3.90
2022-08-19T15:50:48.181Z,3.70
2022-08-19T15:53:17.005Z,3.70
2022-08-19T15:55:48.175Z,3.10
2022-08-19T15:58:34.471Z,3.30
2022-08-19T16:01:23.531Z,3.60
2022-08-19T16:04:13.899Z,3.30
2022-08-19T16:06:47.442Z,4.07
2022-08-19T16:09:16.534Z,3.50
2022-08-19T16:11:46.117Z,3.10
2022-08-19T16:14:15.037Z,3.40
2022-08-19T16:16:44.520Z,3.77
2022-08-19T16:19:15.115Z,3.63
2022-08-19T16:21:45.690Z,3.00
2022-08-19T16:24:16.616Z,3.30
2022-08-19T16:26:46.127Z,3.20
2022-08-19T16:29:14.852Z,3.07
2022-08-19T16:31:56.774Z,3.10
2022-08-19T16:34:25.831Z,3.53
2022-08-19T16:36:55.229Z,2.90
2022-08-19T16:39:23.706Z,2.60
2022-08-19T16:41:51.969Z,2.40
2022-08-19T16:44:20.873Z,2.10
2022-08-19T16:46:58.648Z,2.67
2022-08-19T16:49:54.504Z,2.50
2022-08-19T16:52:18.030Z,1.77
2022-08-19T16:54:46.293Z,2.10
2022-08-19T16:57:14.726Z,1.80
2022-08-19T16:59:49.294Z,1.80
2022-08-19T17:02:18.348Z,3.07
2022-08-19T17:04:58.189Z,1.60
2022-08-19T17:07:29.335Z,1.20
2022-08-19T17:10:02.047Z,1.40
2022-08-19T17:12:32.061Z,1.90
2022-08-19T17:15:02.414Z,1.57
2022-08-19T17:17:30.660Z,1.40
2022-08-19T17:19:59.009Z,1.10
2022-08-19T17:22:28.790Z,1.20
2022-08-19T17:24:58.391Z,1.30
2022-08-19T17:27:32.474Z,1.30
2022-08-19T17:30:02.983Z,1.30
2022-08-19T17:32:33.296Z,1.93
2022-08-19T17:35:01.467Z,1.67
2022-08-19T17:37:30.978Z,1.30
2022-08-19T17:39:59.074Z,1.40
2022-08-19T17:42:27.922Z,1.30
2022-08-19T17:44:59.430Z,1.37
2022-08-19T17:47:28.408Z,1.50
2022-08-19T17:49:56.956Z,2.03
2022-08-19T17:52:25.514Z,1.93
2022-08-19T17:54:54.968Z,2.77
2022-08-19T17:57:23.053Z,2.00
2022-08-19T17:59:51.179Z,1.50
2022-08-19T18:02:21.427Z,1.90
2022-08-19T18:04:50.182Z,1.70
2022-08-19T18:07:21.669Z,1.77
2022-08-19T18:09:52.560Z,1.80
2022-08-19T18:12:26.489Z,2.17
2022-08-19T18:14:54.729Z,1.90
2022-08-19T18:17:23.324Z,2.27
2022-08-19T18:19:51.629Z,1.93
2022-08-19T18:22:26.880Z,2.20
2022-08-19T18:24:56.031Z,1.80
2022-08-19T18:27:25.972Z,2.90
2022-08-19T18:29:58.944Z,2.00
2022-08-19T18:32:27.910Z,1.90
2022-08-19T18:34:56.125Z,2.50
2022-08-19T18:37:26.267Z,3.03
2022-08-19T18:40:20.078Z,2.63
2022-08-19T18:43:21.933Z,2.30
2022-08-19T18:46:07.971Z,2.20
2022-08-19T18:48:53.705Z,2.60
2022-08-19T18:51:27.749Z,2.33
2022-08-19T18:53:58.782Z,2.70
2022-08-19T18:56:31.635Z,2.50
2022-08-19T18:59:02.205Z,2.30
2022-08-19T19:01:32.809Z,2.60
2022-08-19T19:04:03.551Z,2.60
2022-08-19T19:06:35.795Z,2.40
2022-08-19T19:09:03.989Z,2.23
2022-08-19T19:11:34.865Z,2.67
2022-08-19T19:14:10.339Z,2.53
2022-08-19T19:16:39.375Z,3.53
2022-08-19T19:19:13.409Z,2.63
2022-08-19T19:21:47.474Z,2.50
2022-08-19T19:24:18.042Z,2.53
2022-08-19T19:26:46.524Z,2.60
2022-08-19T19:29:16.590Z,2.63
2022-08-19T19:31:45.377Z,2.50
2022-08-19T19:34:15.499Z,2.73
2022-08-19T19:36:58.042Z,2.60
2022-08-19T19:39:44.929Z,2.60
2022-08-19T19:42:19.853Z,3.07
2022-08-19T19:44:51.358Z,2.60
2022-08-19T19:47:19.856Z,2.50
2022-08-19T19:52:39.192Z,2.67
2022-08-19T19:55:09.452Z,2.03
2022-08-19T19:57:39.229Z,2.13
2022-08-19T20:00:11.022Z,2.40
2022-08-19T20:02:39.073Z,2.83
2022-08-19T20:05:07.593Z,2.83
2022-08-19T20:07:53.277Z,2.17
2022-08-19T20:10:21.349Z,3.10
2022-08-19T20:12:49.377Z,2.37
2022-08-19T20:15:19.304Z,2.40
2022-08-19T20:17:47.923Z,2.60
2022-08-19T20:20:17.886Z,2.20
2022-08-19T20:22:47.385Z,2.50
2022-08-19T20:25:15.997Z,2.50
2022-08-19T20:27:44.682Z,2.30
2022-08-19T20:30:19.609Z,2.23
2022-08-19T20:32:50.340Z,2.57
2022-08-19T20:35:21.391Z,4.70
2022-08-19T20:37:52.856Z,3.17
2022-08-19T20:40:24.161Z,2.97
2022-08-19T20:42:52.290Z,5.13
2022-08-19T20:45:33.642Z,3.60
2022-08-19T20:48:03.887Z,4.67
2022-08-19T20:50:32.601Z,4.63
2022-08-19T20:53:00.760Z,4.27
2022-08-19T20:55:30.428Z,4.57
2022-08-19T20:57:58.659Z,5.63
2022-08-19T21:00:29.213Z,6.73
2022-08-19T21:02:57.361Z,6.53
2022-08-19T21:05:30.443Z,6.13
2022-08-19T21:07:59.150Z,6.23
2022-08-19T21:10:27.494Z,6.87
2022-08-19T21:12:55.867Z,6.00
2022-08-19T21:15:24.918Z,5.77
2022-08-19T21:17:53.147Z,6.33
2022-08-19T21:20:21.310Z,6.23
2022-08-19T21:22:50.737Z,5.67
2022-08-19T21:25:19.149Z,5.87
2022-08-19T21:27:47.880Z,5.30
2022-08-19T21:30:15.966Z,5.67
2022-08-19T21:32:44.047Z,4.80
2022-08-19T21:35:12.258Z,4.73
2022-08-19T21:37:40.326Z,4.63
2022-08-19T21:40:11.267Z,5.50
2022-08-19T21:42:39.710Z,4.00
2022-08-19T21:45:08.416Z,4.87
2022-08-19T21:47:37.061Z,3.80
2022-08-19T21:50:05.496Z,3.60
2022-08-19T21:52:34.071Z,3.60
2022-08-19T21:55:02.158Z,4.17
2022-08-19T21:57:31.611Z,3.90
2022-08-19T21:59:59.678Z,3.93
2022-08-19T22:02:28.158Z,4.03
2022-08-19T22:04:56.255Z,3.90
2022-08-19T22:07:24.303Z,3.50
2022-08-19T22:09:52.745Z,3.90
2022-08-19T22:12:23.974Z,3.67
2022-08-19T22:14:54.204Z,3.60
2022-08-19T22:17:23.365Z,3.67
2022-08-19T22:19:52.514Z,3.10
2022-08-19T22:22:22.174Z,3.30
2022-08-19T22:24:50.211Z,4.00
2022-08-19T22:27:18.298Z,4.20
2022-08-19T22:29:46.372Z,3.30
2022-08-19T22:32:27.973Z,3.80
2022-08-19T22:34:58.849Z,2.73
2022-08-19T22:37:27.668Z,3.20
2022-08-19T22:39:56.269Z,2.87
2022-08-19T22:42:25.281Z,3.60
2022-08-19T22:45:00.081Z,2.70
2022-08-19T22:47:34.062Z,2.73
2022-08-19T22:50:02.523Z,2.70
2022-08-19T22:52:30.027Z,2.67
2022-08-19T22:55:01.896Z,2.90
2022-08-19T22:57:30.018Z,3.23
2022-08-19T23:00:01.150Z,3.30
2022-08-19T23:02:34.582Z,3.53
2022-08-19T23:05:04.230Z,2.83
2022-08-19T23:07:32.361Z,2.53
2022-08-19T23:10:00.445Z,3.10
2022-08-19T23:12:31.555Z,2.77
2022-08-19T23:15:03.471Z,3.67
2022-08-19T23:17:33.594Z,2.80
2022-08-19T23:20:01.697Z,4.23
2022-08-19T23:22:30.546Z,2.93
2022-08-19T23:25:03.215Z,2.60
2022-08-19T23:27:48.771Z,2.57
2022-08-19T23:30:29.000Z,2.73
2022-08-19T23:33:00.870Z,2.63
2022-08-19T23:35:33.466Z,3.57
2022-08-19T23:38:02.028Z,2.60
2022-08-19T23:40:30.506Z,3.53
2022-08-19T23:42:58.872Z,2.23
2022-08-19T23:45:28.107Z,2.53
2022-08-19T23:48:03.398Z,2.40
2022-08-19T23:50:32.510Z,2.50
2022-08-19T23:53:01.519Z,3.20
2022-08-19T23:55:32.705Z,2.50
2022-08-19T23:58:01.450Z,2.20
